Bebington, United Kingdom
Current Conditions -  °F | °C
As of 10:50 AM on Saturday 25 Oct 2014 (Local Time) from EGGP Reporting Station
Broken Clouds Broken Clouds  
Wind Chill: 52°   Ceiling: 3400
Heat Index: 52°   Visibility: 6mi
Dew Point: 50°   Wind: 12mph
Humidity: 94%   Direction: 180°S
Pressure: 29.91"   Gusts: NA
Location:  53.35°N, 3°W
Report Text: EGGP 250950Z 18010KT 140V200 9999 SCT020 BKN034 11/10 Q1013
Loading
Personal Weather Stations






























Interactive Weather Map
Tropical Storm Tracking
New forecast layout! Learn more

10-Day Weather Forecast

Advertisements
Track Severe Weather on mobile